createdAt,value
2023-09-15T00:00:18.666Z,14.68
2023-09-15T00:02:47.522Z,12.27
2023-09-15T00:05:16.567Z,12.60
2023-09-15T00:07:44.704Z,15.40
2023-09-15T00:10:13.222Z,12.80
2023-09-15T00:12:43.957Z,13.75
2023-09-15T00:15:13.555Z,17.43
2023-09-15T00:17:43.269Z,13.15
2023-09-15T00:20:14.726Z,12.52
2023-09-15T00:22:53.183Z,16.50
2023-09-15T00:25:23.898Z,16.85
2023-09-15T00:27:53.231Z,16.77
2023-09-15T00:30:23.294Z,19.05
2023-09-15T00:32:52.570Z,12.98
2023-09-15T00:35:24.184Z,17.40
2023-09-15T00:37:53.183Z,17.60
2023-09-15T00:40:22.993Z,15.10
2023-09-15T00:42:53.499Z,15.00
2023-09-15T00:45:23.305Z,13.48
2023-09-15T00:47:54.254Z,16.50
2023-09-15T00:50:27.080Z,13.18
2023-09-15T00:52:58.841Z,13.40
2023-09-15T00:55:28.546Z,15.35
2023-09-15T00:57:58.173Z,11.73
2023-09-15T01:00:27.520Z,13.82
2023-09-15T01:02:56.047Z,13.38
2023-09-15T01:05:25.887Z,11.90
2023-09-15T01:07:55.080Z,11.50
2023-09-15T01:10:25.637Z,13.25
2023-09-15T01:12:56.366Z,14.18
2023-09-15T01:15:58.339Z,17.85
2023-09-15T01:19:05.230Z,11.43
2023-09-15T01:21:42.294Z,14.52
2023-09-15T01:24:13.135Z,14.88
2023-09-15T01:27:00.875Z,12.13
2023-09-15T01:29:40.712Z,13.07
2023-09-15T01:32:14.113Z,13.03
2023-09-15T01:34:51.928Z,15.07
2023-09-15T01:37:21.591Z,16.05
2023-09-15T01:39:51.448Z,13.02
2023-09-15T01:42:19.546Z,14.63
2023-09-15T01:44:47.911Z,13.10
2023-09-15T01:47:23.024Z,16.70
2023-09-15T01:49:53.605Z,13.68
2023-09-15T01:52:23.015Z,12.65
2023-09-15T01:54:53.941Z,13.02
2023-09-15T01:57:23.661Z,13.73
2023-09-15T01:59:52.016Z,14.35
2023-09-15T02:02:20.043Z,14.70
2023-09-15T02:04:48.125Z,13.45
2023-09-15T02:07:16.767Z,12.43
2023-09-15T02:09:44.973Z,15.57
2023-09-15T02:12:13.143Z,13.55
2023-09-15T02:14:41.267Z,12.88
2023-09-15T02:17:14.382Z,14.45
2023-09-15T02:19:43.648Z,17.30
2023-09-15T02:22:12.278Z,13.10
2023-09-15T02:24:40.503Z,16.67
2023-09-15T02:27:08.586Z,14.15
2023-09-15T02:29:36.913Z,14.65
2023-09-15T02:32:05.833Z,15.63
2023-09-15T02:34:34.430Z,15.70
2023-09-15T02:37:02.617Z,15.57
2023-09-15T02:39:30.686Z,15.73
2023-09-15T02:41:58.774Z,15.73
2023-09-15T02:44:27.117Z,14.98
2023-09-15T02:46:56.012Z,20.23
2023-09-15T02:49:24.248Z,14.32
2023-09-15T02:51:52.338Z,15.77
2023-09-15T02:54:20.584Z,16.55
2023-09-15T02:56:48.535Z,13.68
2023-09-15T02:59:16.818Z,12.53
2023-09-15T03:01:45.693Z,16.13
2023-09-15T03:04:13.914Z,12.98
2023-09-15T03:06:42.035Z,13.93
2023-09-15T03:09:11.275Z,15.20
2023-09-15T03:11:39.335Z,17.00
2023-09-15T03:14:10.866Z,16.77
2023-09-15T03:16:43.113Z,15.43
2023-09-15T03:19:11.260Z,13.82
2023-09-15T03:21:39.713Z,14.63
2023-09-15T03:24:09.652Z,19.03
2023-09-15T03:26:40.728Z,14.23
2023-09-15T03:29:09.846Z,16.95
2023-09-15T03:31:38.638Z,16.25
2023-09-15T03:34:08.784Z,15.40
2023-09-15T03:36:37.720Z,15.93
2023-09-15T03:39:07.283Z,19.27
2023-09-15T03:41:35.444Z,13.80
2023-09-15T03:44:04.167Z,16.60
2023-09-15T03:46:33.462Z,15.27
2023-09-15T03:49:02.516Z,17.13
2023-09-15T03:52:20.236Z,16.13
2023-09-15T03:54:48.759Z,16.13
2023-09-15T03:57:16.895Z,18.42
2023-09-15T03:59:45.169Z,16.38
2023-09-15T04:02:13.211Z,16.37
2023-09-15T04:04:41.255Z,16.40
2023-09-15T04:07:09.468Z,15.32
2023-09-15T04:09:37.774Z,16.83
2023-09-15T04:12:07.087Z,13.63
2023-09-15T04:14:37.035Z,15.93
2023-09-15T04:17:05.274Z,15.20
2023-09-15T04:19:34.560Z,13.88
2023-09-15T04:22:02.758Z,14.52
2023-09-15T04:24:31.165Z,17.40
2023-09-15T04:26:59.193Z,15.27
2023-09-15T04:29:27.665Z,16.45
2023-09-15T04:31:56.034Z,14.27
2023-09-15T04:34:24.315Z,15.55
2023-09-15T04:36:52.536Z,12.10
2023-09-15T04:39:21.123Z,12.97
2023-09-15T04:41:49.306Z,15.80
2023-09-15T04:44:17.440Z,18.75
2023-09-15T04:46:45.840Z,15.13
2023-09-15T04:49:15.082Z,15.15
2023-09-15T04:51:43.648Z,12.60
2023-09-15T04:54:12.211Z,12.80
2023-09-15T04:56:40.677Z,19.02
2023-09-15T04:59:17.183Z,16.88
2023-09-15T05:01:46.179Z,12.75
2023-09-15T05:04:20.052Z,15.27
2023-09-15T05:06:48.444Z,13.25
2023-09-15T05:09:21.828Z,12.90
2023-09-15T05:11:53.937Z,11.07
2023-09-15T05:14:22.478Z,13.48
2023-09-15T05:16:51.041Z,20.17
2023-09-15T05:19:19.176Z,14.13
2023-09-15T05:21:47.315Z,12.27
2023-09-15T05:24:15.372Z,12.93
2023-09-15T05:26:43.938Z,15.88
2023-09-15T05:29:12.136Z,13.73
2023-09-15T05:31:40.712Z,15.50
2023-09-15T05:34:09.619Z,16.67
2023-09-15T05:36:38.008Z,21.75
2023-09-15T05:39:06.934Z,21.25
2023-09-15T05:41:35.124Z,14.37
2023-09-15T05:44:03.286Z,15.70
2023-09-15T05:46:31.690Z,14.68
2023-09-15T05:48:59.901Z,15.80
2023-09-15T05:51:28.123Z,13.45
2023-09-15T05:53:56.102Z,14.63
2023-09-15T05:56:24.293Z,13.68
2023-09-15T05:58:52.270Z,15.82
2023-09-15T06:01:21.299Z,15.45
2023-09-15T06:03:52.174Z,19.48
2023-09-15T06:06:20.510Z,16.87
2023-09-15T06:08:48.881Z,19.52
2023-09-15T06:11:17.117Z,20.80
2023-09-15T06:13:47.327Z,23.45
2023-09-15T06:16:15.762Z,24.52
2023-09-15T06:18:43.842Z,28.67
2023-09-15T06:21:11.991Z,26.45
2023-09-15T06:23:40.011Z,26.33
2023-09-15T06:26:09.978Z,22.30
2023-09-15T06:28:38.302Z,24.08
2023-09-15T06:31:06.782Z,26.00
2023-09-15T06:33:34.916Z,21.77
2023-09-15T06:36:03.370Z,23.52
2023-09-15T06:38:33.090Z,25.30
2023-09-15T06:41:02.768Z,21.80
2023-09-15T06:43:34.637Z,22.23
2023-09-15T06:46:03.992Z,23.67
2023-09-15T06:48:32.055Z,24.88
2023-09-15T06:51:00.127Z,20.65
2023-09-15T06:53:28.442Z,18.88
2023-09-15T06:55:57.146Z,21.13
2023-09-15T06:58:25.804Z,20.75
2023-09-15T07:00:57.238Z,24.42
2023-09-15T07:03:27.896Z,22.60
2023-09-15T07:05:55.933Z,22.65
2023-09-15T07:08:24.016Z,21.17
2023-09-15T07:10:52.934Z,19.17
2023-09-15T07:13:21.099Z,20.67
2023-09-15T07:15:49.145Z,21.17
2023-09-15T07:18:17.119Z,18.42
2023-09-15T07:20:45.298Z,20.67
2023-09-15T07:23:13.498Z,18.75
2023-09-15T07:25:44.949Z,18.30
2023-09-15T07:28:13.471Z,18.25
2023-09-15T07:30:43.174Z,16.23
2023-09-15T07:33:11.368Z,17.83
2023-09-15T07:35:39.559Z,16.30
2023-09-15T07:38:07.806Z,15.13
2023-09-15T07:40:36.258Z,13.93
2023-09-15T07:43:04.855Z,16.73
2023-09-15T07:45:33.138Z,18.10
2023-09-15T07:48:02.366Z,16.15
2023-09-15T07:50:34.884Z,17.40
2023-09-15T07:53:03.100Z,19.83
2023-09-15T07:55:31.465Z,18.70
2023-09-15T07:57:59.697Z,18.90
2023-09-15T08:00:28.357Z,19.00
2023-09-15T08:02:57.015Z,18.15
2023-09-15T08:05:25.326Z,18.20
2023-09-15T08:07:54.193Z,15.55
2023-09-15T08:10:23.793Z,16.13
2023-09-15T08:12:54.146Z,17.08
2023-09-15T08:15:23.433Z,15.25
2023-09-15T08:17:52.982Z,17.58
2023-09-15T08:20:23.270Z,16.83
2023-09-15T08:22:51.950Z,18.37
2023-09-15T08:25:20.456Z,17.15
2023-09-15T08:27:49.001Z,12.65
2023-09-15T08:30:18.155Z,15.57
2023-09-15T08:32:46.510Z,14.10
2023-09-15T08:35:15.005Z,16.90
2023-09-15T08:37:43.811Z,16.35
2023-09-15T08:40:13.650Z,21.75
2023-09-15T08:42:42.759Z,19.30
2023-09-15T08:45:12.292Z,19.55
2023-09-15T08:47:44.723Z,21.80
2023-09-15T08:50:13.638Z,25.33
2023-09-15T08:52:43.073Z,24.88
2023-09-15T08:55:11.336Z,22.35
2023-09-15T08:57:41.084Z,29.40
2023-09-15T09:00:10.407Z,27.73
2023-09-15T09:02:39.214Z,23.35
2023-09-15T09:05:07.973Z,26.17
2023-09-15T09:07:37.333Z,27.08
2023-09-15T09:10:06.638Z,25.55
2023-09-15T09:12:35.414Z,25.60
2023-09-15T09:15:03.796Z,20.83
2023-09-15T09:17:33.109Z,24.60
2023-09-15T09:20:01.282Z,24.13
2023-09-15T09:22:30.646Z,24.13
2023-09-15T09:25:02.201Z,21.20
2023-09-15T09:27:35.855Z,23.75
2023-09-15T09:30:05.104Z,21.23
2023-09-15T09:32:38.077Z,21.50
2023-09-15T09:35:06.578Z,25.15
2023-09-15T09:37:35.295Z,23.60
2023-09-15T09:40:04.208Z,25.55
2023-09-15T09:42:32.494Z,19.77
2023-09-15T09:45:01.691Z,19.27
2023-09-15T09:47:30.938Z,20.73
2023-09-15T09:49:59.607Z,18.03
2023-09-15T09:52:28.366Z,20.30
2023-09-15T09:54:57.261Z,15.38
2023-09-15T09:57:26.769Z,16.27
2023-09-15T09:59:55.355Z,17.80
2023-09-15T10:02:23.768Z,16.70
2023-09-15T10:04:52.426Z,16.95
2023-09-15T10:07:21.666Z,17.15
2023-09-15T10:09:52.036Z,14.13
2023-09-15T10:12:20.748Z,15.07
2023-09-15T10:14:49.762Z,15.93
2023-09-15T10:17:20.077Z,13.32
2023-09-15T10:19:52.446Z,14.07
2023-09-15T10:22:22.121Z,12.40
2023-09-15T10:24:58.625Z,13.88
2023-09-15T10:27:30.717Z,14.77
2023-09-15T10:30:06.083Z,11.25
2023-09-15T10:32:39.566Z,12.55
2023-09-15T10:35:09.594Z,11.45
2023-09-15T10:37:45.475Z,12.18
2023-09-15T10:40:14.745Z,13.10
2023-09-15T10:42:51.173Z,13.27
2023-09-15T10:45:20.782Z,12.73
2023-09-15T10:48:03.036Z,11.18
2023-09-15T10:50:37.383Z,10.63
2023-09-15T10:53:10.348Z,12.43
2023-09-15T10:55:42.246Z,14.88
2023-09-15T10:58:12.056Z,12.25
2023-09-15T11:00:40.796Z,9.48
2023-09-15T11:03:10.998Z,8.82
2023-09-15T11:05:40.577Z,10.63
2023-09-15T11:08:10.636Z,13.15
2023-09-15T11:10:39.142Z,12.15
2023-09-15T11:13:07.846Z,9.98
2023-09-15T11:15:37.197Z,9.75
2023-09-15T11:18:07.188Z,13.07
2023-09-15T11:20:35.765Z,13.00
2023-09-15T11:23:06.934Z,14.68
2023-09-15T11:25:35.799Z,9.82
2023-09-15T11:28:04.795Z,11.75
2023-09-15T11:30:33.419Z,10.77
2023-09-15T11:33:06.794Z,9.75
2023-09-15T11:35:36.205Z,7.60
2023-09-15T11:38:04.663Z,10.45
2023-09-15T11:40:34.746Z,12.27
2023-09-15T11:43:04.256Z,9.03
2023-09-15T11:45:34.137Z,11.07
2023-09-15T11:48:05.334Z,9.90
2023-09-15T11:50:34.626Z,12.05
2023-09-15T11:53:04.128Z,10.65
2023-09-15T11:55:33.095Z,12.37
2023-09-15T11:58:01.524Z,11.35
2023-09-15T12:00:32.289Z,9.82
2023-09-15T12:03:04.617Z,10.60
2023-09-15T12:05:34.164Z,12.90
2023-09-15T12:08:04.279Z,9.87
2023-09-15T12:10:33.152Z,7.35
2023-09-15T12:13:02.052Z,18.30
2023-09-15T12:15:30.922Z,9.90
2023-09-15T12:17:59.564Z,9.15
2023-09-15T12:20:28.671Z,9.10
2023-09-15T12:22:57.379Z,10.48
2023-09-15T12:25:26.098Z,11.77
2023-09-15T12:27:55.042Z,10.38
2023-09-15T12:30:24.478Z,8.38
2023-09-15T12:32:54.685Z,9.10
2023-09-15T12:35:25.482Z,10.27
2023-09-15T12:37:56.586Z,10.05
2023-09-15T12:40:25.620Z,11.70
2023-09-15T12:42:54.099Z,12.05
2023-09-15T12:45:22.625Z,9.67
2023-09-15T12:47:51.652Z,10.00
2023-09-15T12:50:20.364Z,15.18
2023-09-15T12:52:48.904Z,10.90
2023-09-15T12:55:18.841Z,10.73
2023-09-15T12:57:47.779Z,8.93
2023-09-15T13:00:18.134Z,8.93
2023-09-15T13:02:48.199Z,9.57
2023-09-15T13:05:16.579Z,10.85
2023-09-15T13:07:47.028Z,11.93
2023-09-15T13:10:16.062Z,10.20
2023-09-15T13:12:44.421Z,10.70
2023-09-15T13:15:13.263Z,9.88
2023-09-15T13:17:42.530Z,9.68
2023-09-15T13:20:11.747Z,13.18
2023-09-15T13:22:41.257Z,11.77
2023-09-15T13:25:10.695Z,9.13
2023-09-15T13:27:44.375Z,9.95
2023-09-15T13:30:15.285Z,8.55
2023-09-15T13:32:47.592Z,12.27
2023-09-15T13:35:16.430Z,11.20
2023-09-15T13:37:44.942Z,9.70
2023-09-15T13:40:13.972Z,9.73
2023-09-15T13:42:43.212Z,12.07
2023-09-15T13:45:14.549Z,10.35
2023-09-15T13:47:45.742Z,11.30
2023-09-15T13:50:15.470Z,10.57
2023-09-15T13:52:43.973Z,9.93
2023-09-15T13:55:13.267Z,12.23
2023-09-15T13:57:41.964Z,14.07
2023-09-15T14:00:13.489Z,9.37
2023-09-15T14:02:43.063Z,11.38
2023-09-15T14:05:12.109Z,13.52
2023-09-15T14:07:40.331Z,10.65
2023-09-15T14:10:09.778Z,12.95
2023-09-15T14:12:38.681Z,11.07
2023-09-15T14:15:11.407Z,11.82
2023-09-15T14:17:40.363Z,12.40
2023-09-15T14:20:09.465Z,9.98
2023-09-15T14:22:38.780Z,10.52
2023-09-15T14:25:07.706Z,10.03
2023-09-15T14:27:37.661Z,11.30
2023-09-15T14:30:07.837Z,9.70
2023-09-15T14:32:36.491Z,10.75
2023-09-15T14:35:05.584Z,10.95
2023-09-15T14:37:35.733Z,13.03
2023-09-15T14:40:05.462Z,15.98
2023-09-15T14:42:34.121Z,12.35
2023-09-15T14:45:04.112Z,10.48
2023-09-15T14:47:33.752Z,10.27
2023-09-15T14:50:03.933Z,10.20
2023-09-15T14:52:33.392Z,9.65
2023-09-15T14:55:01.535Z,10.32
2023-09-15T14:57:31.618Z,10.65
2023-09-15T15:00:00.875Z,11.77
2023-09-15T15:02:29.804Z,10.63
2023-09-15T15:04:58.308Z,11.15
2023-09-15T15:07:26.427Z,10.18
2023-09-15T15:09:55.592Z,11.40
2023-09-15T15:12:24.647Z,12.15
2023-09-15T15:14:53.108Z,11.53
2023-09-15T15:17:22.599Z,11.75
2023-09-15T15:19:51.890Z,10.63
2023-09-15T15:22:20.462Z,12.80
2023-09-15T15:24:49.536Z,12.00
2023-09-15T15:27:20.510Z,10.70
2023-09-15T15:29:49.572Z,13.27
2023-09-15T15:32:19.901Z,8.80
2023-09-15T15:34:49.219Z,11.65
2023-09-15T15:37:18.738Z,12.95
2023-09-15T15:39:47.593Z,7.60
2023-09-15T15:42:16.345Z,12.02
2023-09-15T15:44:45.038Z,12.10
2023-09-15T15:47:23.230Z,17.65
2023-09-15T15:49:54.886Z,11.55
2023-09-15T15:52:24.071Z,13.50
2023-09-15T15:54:52.264Z,15.15
2023-09-15T15:57:22.625Z,14.40
2023-09-15T15:59:51.722Z,13.00
2023-09-15T16:02:20.994Z,11.27
2023-09-15T16:04:50.991Z,11.80
2023-09-15T16:07:20.753Z,12.50
2023-09-15T16:09:49.005Z,11.27
2023-09-15T16:12:18.290Z,9.20
2023-09-15T16:14:47.100Z,10.00
2023-09-15T16:17:15.215Z,15.17
2023-09-15T16:19:44.093Z,13.25
2023-09-15T16:22:12.558Z,17.65
2023-09-15T16:25:32.949Z,15.00
2023-09-15T16:28:01.178Z,14.10
2023-09-15T16:30:29.256Z,11.57
2023-09-15T16:32:57.866Z,17.05
2023-09-15T16:35:27.581Z,13.48
2023-09-15T16:37:56.268Z,12.27
2023-09-15T16:40:25.112Z,12.85
2023-09-15T16:42:54.122Z,13.40
2023-09-15T16:45:23.801Z,13.40
2023-09-15T16:47:52.961Z,18.70
2023-09-15T16:50:22.104Z,12.82
2023-09-15T16:52:50.234Z,16.63
2023-09-15T16:55:18.502Z,12.20
2023-09-15T16:57:46.775Z,11.55
2023-09-15T17:00:17.393Z,11.93
2023-09-15T17:02:45.562Z,10.10
2023-09-15T17:05:16.747Z,16.42
2023-09-15T17:07:45.112Z,10.07
2023-09-15T17:10:13.904Z,8.63
2023-09-15T17:12:44.131Z,8.27
2023-09-15T17:15:14.765Z,8.02
2023-09-15T17:17:44.740Z,8.68
2023-09-15T17:20:14.741Z,9.17
2023-09-15T17:22:43.682Z,7.03
2023-09-15T17:25:12.183Z,7.15
2023-09-15T17:27:40.206Z,6.47
2023-09-15T17:30:09.159Z,7.65
2023-09-15T17:32:37.484Z,8.37
2023-09-15T17:35:05.933Z,6.45
2023-09-15T17:37:36.608Z,7.38
2023-09-15T17:40:06.513Z,6.60
2023-09-15T17:42:34.640Z,7.07
2023-09-15T17:45:03.144Z,7.30
2023-09-15T17:47:32.100Z,9.38
2023-09-15T17:50:11.574Z,8.32
2023-09-15T17:52:41.053Z,8.80
2023-09-15T17:55:11.397Z,5.82
2023-09-15T17:57:46.586Z,7.03
2023-09-15T18:00:16.788Z,8.38
2023-09-15T18:02:45.951Z,6.07
2023-09-15T18:05:14.669Z,8.35
2023-09-15T18:07:42.750Z,7.32
2023-09-15T18:10:11.004Z,8.10
2023-09-15T18:12:39.599Z,7.85
2023-09-15T18:15:08.454Z,7.50
2023-09-15T18:17:36.821Z,7.00
2023-09-15T18:20:07.538Z,7.80
2023-09-15T18:22:35.686Z,9.00
2023-09-15T18:25:06.662Z,6.43
2023-09-15T18:27:36.445Z,6.95
2023-09-15T18:30:06.312Z,6.47
2023-09-15T18:32:34.801Z,6.88
2023-09-15T18:35:02.997Z,7.20
2023-09-15T18:37:31.816Z,8.02
2023-09-15T18:40:01.826Z,9.52
2023-09-15T18:42:31.690Z,7.95
2023-09-15T18:44:59.703Z,8.43
2023-09-15T18:47:27.790Z,7.07
2023-09-15T18:49:59.454Z,7.28
2023-09-15T18:52:28.474Z,8.88
2023-09-15T18:54:57.895Z,9.20
2023-09-15T18:57:26.351Z,9.18
2023-09-15T18:59:56.852Z,7.77
2023-09-15T19:02:25.681Z,7.45
2023-09-15T19:04:54.128Z,7.63
2023-09-15T19:07:22.198Z,9.68
2023-09-15T19:09:50.258Z,6.60
2023-09-15T19:12:18.669Z,7.23
2023-09-15T19:14:47.172Z,7.22
2023-09-15T19:17:15.810Z,6.43
2023-09-15T19:19:44.057Z,7.40
2023-09-15T19:22:12.073Z,10.00
2023-09-15T19:24:40.134Z,6.77
2023-09-15T19:27:08.393Z,7.72
2023-09-15T19:29:36.575Z,7.70
2023-09-15T19:32:04.894Z,7.68
2023-09-15T19:34:33.007Z,6.32
2023-09-15T19:37:01.534Z,7.83
2023-09-15T19:39:29.699Z,6.95
2023-09-15T19:41:57.898Z,7.13
2023-09-15T19:44:25.957Z,6.57
2023-09-15T19:46:54.647Z,7.07
2023-09-15T19:49:22.856Z,6.87
2023-09-15T19:51:50.869Z,8.77
2023-09-15T19:54:19.244Z,6.55
2023-09-15T19:56:47.424Z,7.80
2023-09-15T19:59:15.682Z,10.50
2023-09-15T20:01:43.722Z,8.40
2023-09-15T20:04:14.322Z,8.30
2023-09-15T20:06:42.662Z,8.57
2023-09-15T20:09:12.024Z,8.32
2023-09-15T20:11:40.175Z,6.93
2023-09-15T20:14:08.658Z,8.53
2023-09-15T20:16:36.866Z,9.43
2023-09-15T20:19:05.900Z,10.32
2023-09-15T20:21:34.296Z,8.18
2023-09-15T20:24:02.664Z,7.97
2023-09-15T20:26:30.776Z,8.97
2023-09-15T20:28:58.782Z,8.15
2023-09-15T20:31:27.488Z,8.35
2023-09-15T20:34:03.649Z,8.13
2023-09-15T20:36:32.630Z,8.48
2023-09-15T20:39:00.801Z,11.83
2023-09-15T20:41:29.277Z,9.27
2023-09-15T20:43:57.783Z,8.63
2023-09-15T20:46:28.627Z,7.45
2023-09-15T20:48:56.882Z,10.77
2023-09-15T20:51:25.289Z,11.90
2023-09-15T20:53:53.736Z,7.80
2023-09-15T20:56:22.707Z,7.55
2023-09-15T20:58:51.100Z,7.07
2023-09-15T21:01:19.517Z,8.82
2023-09-15T21:03:47.841Z,9.30
2023-09-15T21:06:16.178Z,8.48
2023-09-15T21:08:44.187Z,9.38
2023-09-15T21:11:12.279Z,7.30
2023-09-15T21:13:42.169Z,8.65
2023-09-15T21:16:11.314Z,9.83
2023-09-15T21:18:40.099Z,9.77
2023-09-15T21:21:08.484Z,7.70
2023-09-15T21:23:39.047Z,8.73
2023-09-15T21:26:07.174Z,9.38
2023-09-15T21:28:35.329Z,7.50
2023-09-15T21:31:10.569Z,8.05
2023-09-15T21:33:38.950Z,9.80
2023-09-15T21:36:07.152Z,9.55
2023-09-15T21:38:35.177Z,9.15
2023-09-15T21:41:03.598Z,9.23
2023-09-15T21:43:34.578Z,9.02
2023-09-15T21:46:02.966Z,9.63
2023-09-15T21:48:31.566Z,9.77
2023-09-15T21:51:01.283Z,9.00
2023-09-15T21:53:29.656Z,11.90
2023-09-15T21:55:57.725Z,9.70
2023-09-15T21:58:25.925Z,11.88
2023-09-15T22:00:53.987Z,11.38
2023-09-15T22:03:22.253Z,12.45
2023-09-15T22:05:53.389Z,15.47
2023-09-15T22:08:22.500Z,9.65
2023-09-15T22:10:50.873Z,9.48
2023-09-15T22:13:20.378Z,9.95
2023-09-15T22:15:48.492Z,9.15
2023-09-15T22:18:16.490Z,9.40
2023-09-15T22:20:44.562Z,10.70
2023-09-15T22:23:12.807Z,11.10
2023-09-15T22:25:43.204Z,8.85
2023-09-15T22:28:11.293Z,8.88
2023-09-15T22:30:39.304Z,9.40
2023-09-15T22:33:07.521Z,9.32
2023-09-15T22:35:35.571Z,8.43
2023-09-15T22:38:03.915Z,9.43
2023-09-15T22:40:32.305Z,8.85
2023-09-15T22:43:00.835Z,12.07
2023-09-15T22:45:29.348Z,11.57
2023-09-15T22:47:59.194Z,9.15
2023-09-15T22:50:27.791Z,11.02
2023-09-15T22:52:56.523Z,11.23
2023-09-15T22:55:25.750Z,12.73
2023-09-15T22:57:53.871Z,11.00
2023-09-15T23:00:22.024Z,10.13
2023-09-15T23:02:51.635Z,11.35
2023-09-15T23:05:19.932Z,10.00
2023-09-15T23:07:48.136Z,11.47
2023-09-15T23:10:17.671Z,11.38
2023-09-15T23:12:47.056Z,9.75
2023-09-15T23:15:15.136Z,10.63
2023-09-15T23:17:43.106Z,10.95
2023-09-15T23:20:11.888Z,11.60
2023-09-15T23:22:40.137Z,9.48
2023-09-15T23:25:08.847Z,11.07
2023-09-15T23:27:37.304Z,10.88
2023-09-15T23:30:06.535Z,9.63
2023-09-15T23:32:34.461Z,11.03
2023-09-15T23:35:02.713Z,13.13
2023-09-15T23:37:30.874Z,13.75
2023-09-15T23:39:59.124Z,10.73
2023-09-15T23:42:27.203Z,11.57
2023-09-15T23:44:55.924Z,11.07
2023-09-15T23:47:24.513Z,13.38
2023-09-15T23:49:53.653Z,11.80
2023-09-15T23:52:21.934Z,10.07
2023-09-15T23:54:50.052Z,11.38
2023-09-15T23:57:18.149Z,11.63
2023-09-15T23:59:46.358Z,10.55
